Time;durP1;ratioP1;P1;durP2;ratioP2;P2;SDS_P1;SDS_P2;PMS_P1;PMS_P2;Temp;Humidity;BMP_temperature;BMP_pressure;BME280_temperature;BME280_humidity;BME280_pressure;Samples;Min_cycle;Max_cycle;Signal;HPM_P1;HPM_P2
2022/03/11 00:00:56;;;;;;;16.38;8.82;;;;;;;1.58;68.96;102552.25;4931579;29;20032;-77
2022/03/11 00:03:22;;;;;;;15.63;8.85;;;;;;;1.58;68.15;102549.66;4915412;29;20034;-78
2022/03/11 00:05:48;;;;;;;15.23;8.43;;;;;;;1.59;68.17;102548.78;4932209;29;20047;-78
2022/03/11 00:08:13;;;;;;;12.80;8.15;;;;;;;1.47;68.17;102534.47;4950159;29;20051;-78
2022/03/11 00:10:39;;;;;;;14.85;9.05;;;;;;;1.47;68.53;102550.00;4933596;29;20405;-78
2022/03/11 00:13:05;;;;;;;16.17;8.85;;;;;;;1.42;68.66;102546.69;4935436;29;20713;-77
2022/03/11 00:15:31;;;;;;;15.45;8.25;;;;;;;1.41;68.45;102544.97;4948476;29;20039;-78
2022/03/11 00:17:57;;;;;;;14.18;8.82;;;;;;;1.35;68.61;102532.22;4939419;29;20131;-78
2022/03/11 00:20:24;;;;;;;15.02;9.50;;;;;;;1.33;68.91;102537.44;4916070;29;20075;-78
2022/03/11 00:22:51;;;;;;;14.60;9.20;;;;;;;1.26;68.72;102530.75;4918088;29;20667;-78
2022/03/11 00:25:19;;;;;;;15.77;8.45;;;;;;;1.30;68.88;102540.13;4950401;29;20042;-78
2022/03/11 00:27:45;;;;;;;14.25;8.70;;;;;;;1.22;69.40;102536.03;4932789;29;20045;-78
2022/03/11 00:30:11;;;;;;;14.77;8.95;;;;;;;1.16;69.54;102539.66;4931853;29;20028;-79
2022/03/11 00:32:38;;;;;;;17.83;8.88;;;;;;;1.22;69.15;102541.22;4930217;29;20038;-79
2022/03/11 00:35:09;;;;;;;13.48;9.02;;;;;;;1.11;69.51;102542.38;4917763;29;20599;-79
2022/03/11 00:37:36;;;;;;;14.23;9.07;;;;;;;1.08;69.51;102546.75;4954015;29;20075;-78
2022/03/11 00:40:02;;;;;;;14.20;8.95;;;;;;;1.01;69.89;102532.31;4935294;29;20094;-78
2022/03/11 00:42:28;;;;;;;13.77;8.60;;;;;;;1.01;69.87;102538.31;4934888;29;20803;-79
2022/03/11 00:44:53;;;;;;;13.35;8.90;;;;;;;1.00;69.71;102552.13;4946171;29;20038;-78
2022/03/11 00:47:19;;;;;;;16.58;9.10;;;;;;;1.00;69.71;102548.69;4947794;28;20393;-79
2022/03/11 00:49:44;;;;;;;14.55;8.55;;;;;;;0.92;69.99;102542.00;4931612;29;20043;-78
2022/03/11 00:52:10;;;;;;;16.77;8.73;;;;;;;0.90;70.13;102542.91;4932995;29;20490;-78
2022/03/11 00:54:36;;;;;;;13.43;8.05;;;;;;;0.86;70.28;102539.56;4930721;29;20430;-77
2022/03/11 00:57:02;;;;;;;13.98;8.70;;;;;;;0.96;70.21;102537.56;4934887;29;20043;-78
2022/03/11 00:59:27;;;;;;;14.32;8.70;;;;;;;0.92;69.78;102536.84;4947520;29;20099;-78
2022/03/11 01:01:53;;;;;;;15.15;8.95;;;;;;;0.92;70.36;102541.13;4929901;29;20027;-79
2022/03/11 01:04:18;;;;;;;15.70;9.18;;;;;;;0.82;70.31;102537.94;4922974;29;20082;-79
2022/03/11 01:06:44;;;;;;;18.08;8.90;;;;;;;0.70;70.72;102541.69;4950549;29;20031;-78
2022/03/11 01:09:10;;;;;;;13.63;8.70;;;;;;;0.68;70.70;102538.31;4932726;28;20627;-79
2022/03/11 01:11:36;;;;;;;16.70;9.15;;;;;;;0.67;70.18;102523.69;4933011;29;20043;-79
2022/03/11 01:14:02;;;;;;;14.70;8.52;;;;;;;0.58;70.78;102514.47;4948897;29;20036;-79
2022/03/11 01:16:28;;;;;;;14.68;8.65;;;;;;;0.70;70.30;102536.53;4948288;28;20502;-79
2022/03/11 01:18:54;;;;;;;13.88;8.48;;;;;;;0.69;70.74;102532.25;4933817;29;20040;-77
2022/03/11 01:21:19;;;;;;;14.30;8.60;;;;;;;0.63;70.89;102523.81;4922505;29;20043;-79
2022/03/11 01:23:45;;;;;;;15.25;8.45;;;;;;;0.64;70.33;102528.94;4949043;28;20045;-78
2022/03/11 01:26:12;;;;;;;13.25;8.27;;;;;;;0.67;70.10;102528.84;4948431;28;20678;-78
2022/03/11 01:28:42;;;;;;;16.63;8.52;;;;;;;0.67;69.78;102522.84;4933811;29;20079;-79
2022/03/11 01:31:11;;;;;;;15.38;8.43;;;;;;;0.59;70.41;102517.88;4931310;29;20051;-78
2022/03/11 01:33:42;;;;;;;12.32;7.90;;;;;;;0.49;70.98;102517.25;4948027;28;20055;-78
2022/03/11 01:36:08;;;;;;;15.27;8.38;;;;;;;0.44;70.54;102513.09;4916841;29;20075;-79
2022/03/11 01:38:34;;;;;;;15.10;8.18;;;;;;;0.43;70.96;102519.97;4936054;29;20039;-79
2022/03/11 01:41:00;;;;;;;15.45;8.60;;;;;;;0.41;70.87;102526.06;4933411;29;20067;-77
2022/03/11 01:43:28;;;;;;;14.15;8.13;;;;;;;0.36;70.92;102529.63;4935345;29;20028;-79
2022/03/11 01:45:54;;;;;;;14.75;8.07;;;;;;;0.35;70.84;102522.75;4916045;29;20044;-78
2022/03/11 01:48:20;;;;;;;13.18;8.70;;;;;;;0.30;71.05;102522.03;4918211;29;20031;-79
2022/03/11 01:50:46;;;;;;;16.17;8.40;;;;;;;0.25;71.27;102521.28;4950678;28;20047;-78
2022/03/11 01:53:13;;;;;;;17.15;8.00;;;;;;;0.25;70.99;102517.84;4936318;29;20039;-79
2022/03/11 01:55:41;;;;;;;14.63;8.20;;;;;;;0.19;71.53;102522.28;4938256;29;20071;-79
2022/03/11 01:58:07;;;;;;;18.15;7.90;;;;;;;0.16;71.13;102509.44;4935044;29;20058;-79
2022/03/11 02:00:39;;;;;;;14.82;8.13;;;;;;;0.22;71.04;102508.44;4933755;29;20076;-79
2022/03/11 02:03:07;;;;;;;13.35;8.20;;;;;;;0.08;71.83;102502.78;4947029;29;20036;-78
2022/03/11 02:05:33;;;;;;;13.63;7.45;;;;;;;0.04;71.84;102491.66;4948207;28;20042;-77
2022/03/11 02:07:59;;;;;;;12.50;8.30;;;;;;;0.07;72.20;102504.47;4920839;29;20099;-78
2022/03/11 02:10:25;;;;;;;14.82;8.40;;;;;;;0.14;71.52;102503.47;4935861;29;20043;-78
2022/03/11 02:12:51;;;;;;;12.50;7.90;;;;;;;0.05;72.22;102493.34;4949996;29;20122;-77
2022/03/11 02:15:16;;;;;;;14.10;8.38;;;;;;;-0.05;72.16;102487.56;4949022;29;20142;-77
2022/03/11 02:17:42;;;;;;;14.48;8.00;;;;;;;-0.02;72.13;102487.50;4932606;29;20038;-77
2022/03/11 02:20:08;;;;;;;14.23;8.57;;;;;;;0.00;71.96;102487.47;4933357;29;20138;-77
2022/03/11 02:22:40;;;;;;;13.90;7.68;;;;;;;-0.07;72.27;102491.91;4939022;29;20039;-76
2022/03/11 02:25:08;;;;;;;17.55;8.50;;;;;;;-0.02;71.64;102489.22;4950323;28;20062;-78
2022/03/11 02:27:36;;;;;;;12.73;7.13;;;;;;;-0.09;72.46;102490.25;4933618;28;20039;-76
2022/03/11 02:30:11;;;;;;;12.98;7.90;;;;;;;-0.18;71.99;102472.41;4932655;29;20084;-78
2022/03/11 02:32:36;;;;;;;13.82;7.78;;;;;;;-0.11;72.11;102492.03;4949841;28;20040;-79
2022/03/11 02:35:02;;;;;;;14.63;8.57;;;;;;;-0.19;72.11;102487.00;4949239;29;20055;-78
2022/03/11 02:37:29;;;;;;;12.50;7.85;;;;;;;-0.21;72.10;102478.47;4949127;29;20063;-79
2022/03/11 02:39:56;;;;;;;12.65;8.10;;;;;;;-0.17;71.92;102480.13;4933623;29;20032;-78
2022/03/11 02:42:22;;;;;;;14.63;8.30;;;;;;;-0.15;71.50;102475.78;4916672;29;20032;-77
2022/03/11 02:44:47;;;;;;;14.52;7.85;;;;;;;-0.13;71.54;102491.19;4928749;29;20050;-79
2022/03/11 02:47:14;;;;;;;14.13;7.95;;;;;;;-0.15;71.79;102485.22;4949469;28;20044;-79
2022/03/11 02:49:40;;;;;;;16.52;8.25;;;;;;;-0.24;71.90;102484.53;4938273;29;20042;-78
2022/03/11 02:52:05;;;;;;;16.02;8.30;;;;;;;-0.20;71.28;102488.75;4945584;28;20031;-78
2022/03/11 02:54:31;;;;;;;13.75;8.10;;;;;;;-0.27;71.63;102487.19;4928813;29;20047;-78
2022/03/11 02:56:57;;;;;;;15.88;8.05;;;;;;;-0.28;72.00;102488.09;4934656;29;20032;-78
2022/03/11 02:59:22;;;;;;;15.00;8.48;;;;;;;-0.24;71.57;102479.38;4934371;29;20051;-78
2022/03/11 03:01:48;;;;;;;16.05;8.52;;;;;;;-0.25;72.18;102482.84;4952918;29;20115;-79
2022/03/11 03:04:14;;;;;;;15.07;8.82;;;;;;;-0.31;71.87;102482.13;4934982;29;20565;-78
2022/03/11 03:06:40;;;;;;;14.85;8.60;;;;;;;-0.32;72.01;102471.00;4935525;28;20451;-78
2022/03/11 03:09:06;;;;;;;15.55;8.38;;;;;;;-0.31;71.74;102477.81;4950895;28;20447;-78
2022/03/11 03:11:34;;;;;;;17.67;8.23;;;;;;;-0.40;72.04;102480.59;4950608;28;20070;-77
2022/03/11 03:13:59;;;;;;;17.38;8.43;;;;;;;-0.35;72.19;102483.09;4950018;29;20479;-77
2022/03/11 03:16:25;;;;;;;15.63;8.60;;;;;;;-0.45;72.18;102485.03;4933865;29;20410;-78
2022/03/11 03:18:51;;;;;;;16.73;8.25;;;;;;;-0.56;72.70;102480.09;4922263;29;20043;-78
2022/03/11 03:21:16;;;;;;;17.20;9.15;;;;;;;-0.59;73.34;102477.56;4938993;29;20106;-79
2022/03/11 03:23:42;;;;;;;13.32;7.78;;;;;;;-0.56;72.45;102476.66;4916539;29;20032;-77
2022/03/11 03:26:07;;;;;;;16.77;9.02;;;;;;;-0.50;72.31;102485.09;4956667;28;20117;-78
2022/03/11 03:28:33;;;;;;;15.05;9.18;;;;;;;-0.54;72.52;102477.47;4940364;29;20043;-79
2022/03/11 03:30:59;;;;;;;18.45;9.10;;;;;;;-0.65;72.75;102468.22;4934953;29;20897;-79
2022/03/11 03:33:24;;;;;;;17.85;9.02;;;;;;;-0.60;72.59;102474.16;4947123;29;20040;-79
2022/03/11 03:35:50;;;;;;;16.50;9.55;;;;;;;-0.68;72.72;102467.44;4951681;28;20040;-78
2022/03/11 03:38:19;;;;;;;20.73;9.27;;;;;;;-0.73;73.37;102475.28;4936951;29;20474;-77
2022/03/11 03:40:44;;;;;;;19.13;9.60;;;;;;;-0.71;72.85;102470.09;4917679;29;20790;-78
2022/03/11 03:43:10;;;;;;;17.63;9.18;;;;;;;-0.70;72.82;102474.34;4932892;29;20040;-78
2022/03/11 03:45:35;;;;;;;14.95;8.70;;;;;;;-0.77;73.29;102465.91;4937112;29;20043;-79
2022/03/11 03:48:01;;;;;;;22.58;10.45;;;;;;;-0.71;73.22;102478.69;4934098;29;20040;-78
2022/03/11 03:50:29;;;;;;;21.80;9.48;;;;;;;-0.82;73.06;102465.16;4950401;28;20055;-79
2022/03/11 03:52:55;;;;;;;18.05;9.63;;;;;;;-0.87;73.42;102465.22;4950674;29;20039;-77
2022/03/11 03:55:20;;;;;;;19.15;10.10;;;;;;;-0.85;73.07;102465.22;4921284;29;20040;-78
2022/03/11 03:57:46;;;;;;;17.23;9.38;;;;;;;-0.89;73.88;102461.84;4935255;29;20520;-79
2022/03/11 04:00:13;;;;;;;17.67;9.27;;;;;;;-0.99;73.63;102453.44;4935357;29;20044;-78
2022/03/11 04:02:47;;;;;;;16.70;9.38;;;;;;;-0.97;74.30;102471.47;4932573;29;20035;-79
2022/03/11 04:05:14;;;;;;;17.05;9.55;;;;;;;-1.08;74.54;102455.34;4950716;28;20433;-80
2022/03/11 04:07:41;;;;;;;19.02;9.85;;;;;;;-1.05;74.46;102457.88;4934994;29;20050;-79
2022/03/11 04:10:07;;;;;;;17.48;10.30;;;;;;;-1.00;74.24;102466.34;4936128;29;20067;-79
2022/03/11 04:12:32;;;;;;;19.33;9.88;;;;;;;-1.13;74.79;102452.00;4951784;28;20046;-78
2022/03/11 04:14:58;;;;;;;19.30;9.85;;;;;;;-1.12;74.07;102456.31;4934801;29;20039;-80
2022/03/11 04:17:23;;;;;;;19.10;10.10;;;;;;;-1.11;74.73;102448.56;4924821;29;20107;-80
2022/03/11 04:19:49;;;;;;;18.77;9.60;;;;;;;-1.20;74.42;102435.84;4939193;29;20505;-79
2022/03/11 04:22:15;;;;;;;19.15;10.85;;;;;;;-1.08;73.80;102442.47;4938440;28;20043;-79
2022/03/11 04:24:41;;;;;;;20.95;10.57;;;;;;;-1.11;73.88;102451.13;4918921;29;20038;-79
2022/03/11 04:27:07;;;;;;;21.02;9.98;;;;;;;-1.16;74.18;102434.06;4919600;29;20462;-78
2022/03/11 04:29:32;;;;;;;18.98;10.15;;;;;;;-1.15;74.03;102435.75;4929179;29;20581;-79
2022/03/11 04:31:58;;;;;;;18.25;10.10;;;;;;;-1.24;73.97;102431.66;4935400;29;20050;-79
2022/03/11 04:34:25;;;;;;;17.95;9.57;;;;;;;-1.28;74.20;102424.81;4935130;29;20104;-79
2022/03/11 04:36:51;;;;;;;18.95;9.75;;;;;;;-1.22;73.89;102423.00;4951227;28;20098;-80
2022/03/11 04:39:17;;;;;;;20.30;9.70;;;;;;;-1.20;73.93;102423.81;4934186;29;20047;-78
2022/03/11 04:41:44;;;;;;;20.85;9.73;;;;;;;-1.25;74.12;102415.31;4951188;29;20040;-79
2022/03/11 04:44:10;;;;;;;19.77;10.50;;;;;;;-1.31;74.46;102420.59;4934046;29;20036;-79
2022/03/11 04:46:36;;;;;;;16.83;9.90;;;;;;;-1.37;74.50;102410.41;4934492;28;20387;-79
2022/03/11 04:49:01;;;;;;;19.50;10.27;;;;;;;-1.51;74.12;102384.91;4934592;29;20087;-78
2022/03/11 04:51:27;;;;;;;18.17;9.93;;;;;;;-1.40;74.59;102413.03;4950975;29;20042;-79
2022/03/11 04:53:54;;;;;;;18.63;10.18;;;;;;;-1.36;74.30;102417.25;4933598;29;20036;-79
2022/03/11 04:56:20;;;;;;;20.65;10.35;;;;;;;-1.39;74.31;102413.03;4937603;28;20079;-78
2022/03/11 04:58:45;;;;;;;20.50;10.38;;;;;;;-1.39;74.32;102422.47;4916912;29;20036;-80
2022/03/11 05:01:11;;;;;;;19.88;9.90;;;;;;;-1.48;74.12;102420.91;4947448;29;20035;-79
2022/03/11 05:03:36;;;;;;;20.33;10.20;;;;;;;-1.44;73.79;102430.25;4949474;29;20035;-79
2022/03/11 05:06:02;;;;;;;20.73;9.63;;;;;;;-1.42;73.40;102412.22;4935380;29;20078;-78
2022/03/11 05:08:28;;;;;;;17.98;10.45;;;;;;;-1.43;73.83;102428.53;4931570;28;20039;-79
2022/03/11 05:10:54;;;;;;;17.77;10.30;;;;;;;-1.51;74.13;102417.53;4912236;29;20042;-80
2022/03/11 05:13:20;;;;;;;20.60;10.20;;;;;;;-1.48;73.79;102432.94;4932867;29;20062;-78
2022/03/11 05:15:46;;;;;;;20.02;10.15;;;;;;;-1.52;73.61;102415.84;4921625;29;20040;-79
2022/03/11 05:18:11;;;;;;;21.25;10.85;;;;;;;-1.51;73.54;102428.66;4916998;29;20050;-79
2022/03/11 05:20:37;;;;;;;21.63;10.57;;;;;;;-1.56;73.89;102427.94;4949718;29;20047;-79
2022/03/11 05:23:03;;;;;;;19.90;10.07;;;;;;;-1.49;73.97;102429.50;4932497;29;20578;-79
2022/03/11 05:25:30;;;;;;;17.48;10.27;;;;;;;-1.58;74.00;102422.81;4949448;28;20126;-79
2022/03/11 05:27:55;;;;;;;15.60;9.50;;;;;;;-1.55;74.15;102428.78;4933675;29;20090;-79
2022/03/11 05:30:21;;;;;;;17.65;9.82;;;;;;;-1.59;73.86;102420.25;4931596;29;20642;-79
2022/03/11 05:32:47;;;;;;;17.30;9.80;;;;;;;-1.60;73.31;102416.84;4917819;29;20067;-80
2022/03/11 05:35:14;;;;;;;18.90;10.02;;;;;;;-1.59;73.83;102415.94;4924050;29;20159;-79
2022/03/11 05:37:40;;;;;;;18.88;10.40;;;;;;;-1.65;73.61;102417.78;4945796;29;20083;-79
2022/03/11 05:40:07;;;;;;;21.90;10.75;;;;;;;-1.59;73.82;102423.66;4933147;28;20466;-79
2022/03/11 05:42:33;;;;;;;20.33;10.23;;;;;;;-1.64;73.69;102419.47;4949452;28;20035;-79
2022/03/11 05:45:02;;;;;;;18.00;9.85;;;;;;;-1.67;74.11;102419.53;4933349;29;20077;-80
2022/03/11 05:47:29;;;;;;;17.90;10.55;;;;;;;-1.67;73.81;102422.13;4949208;28;20035;-79
2022/03/11 05:49:55;;;;;;;18.15;9.90;;;;;;;-1.65;73.51;102422.94;4949067;29;20047;-78
2022/03/11 05:52:24;;;;;;;22.35;10.20;;;;;;;-1.69;74.02;102422.13;4948994;29;20779;-79
2022/03/11 05:54:50;;;;;;;24.02;11.55;;;;;;;-1.72;74.03;102411.06;4936617;29;20489;-78
2022/03/11 05:57:16;;;;;;;19.35;10.35;;;;;;;-1.75;74.11;102419.69;4918735;28;20506;-78
2022/03/11 05:59:42;;;;;;;18.85;10.23;;;;;;;-1.74;74.33;102412.81;4933229;29;20050;-79
2022/03/11 06:02:07;;;;;;;21.92;10.30;;;;;;;-1.77;73.88;102419.69;4931402;29;20067;-79
2022/03/11 06:04:33;;;;;;;19.42;10.18;;;;;;;-1.73;73.94;102423.06;4946290;28;20066;-78
2022/03/11 06:06:58;;;;;;;20.95;10.25;;;;;;;-1.79;73.99;102412.84;4935204;28;20130;-79
2022/03/11 06:09:24;;;;;;;18.52;10.05;;;;;;;-1.81;73.37;102409.47;4948235;29;20069;-79
2022/03/11 06:11:49;;;;;;;17.15;9.73;;;;;;;-1.74;72.88;102413.66;4949032;28;20035;-79
2022/03/11 06:14:15;;;;;;;19.33;10.30;;;;;;;-1.72;73.84;102419.59;4946529;28;20801;-79
2022/03/11 06:16:43;;;;;;;16.27;9.23;;;;;;;-1.71;73.41;102421.31;4937372;29;20039;-79
2022/03/11 06:19:09;;;;;;;23.92;10.43;;;;;;;-1.64;72.60;102428.06;4920157;28;20046;-79
2022/03/11 06:21:35;;;;;;;19.98;9.43;;;;;;;-1.63;72.29;102427.16;4949537;29;20074;-80
2022/03/11 06:24:01;;;;;;;20.02;10.10;;;;;;;-1.57;72.46;102424.47;4948758;29;20032;-78
2022/03/11 06:26:27;;;;;;;22.70;10.13;;;;;;;-1.52;71.76;102429.56;4941637;29;20035;-78
2022/03/11 06:28:53;;;;;;;22.00;10.50;;;;;;;-1.46;71.40;102441.47;4930986;28;20521;-79
2022/03/11 06:31:19;;;;;;;19.65;9.98;;;;;;;-1.30;71.26;102442.91;4946706;29;20048;-80
2022/03/11 06:33:44;;;;;;;18.13;10.02;;;;;;;-1.29;71.14;102434.28;4947983;29;20040;-78
2022/03/11 06:36:10;;;;;;;22.90;10.30;;;;;;;-1.30;71.10;102434.31;4947703;29;20042;-79
2022/03/11 06:38:36;;;;;;;21.67;9.80;;;;;;;-1.26;70.67;102429.09;4918054;29;20083;-79
2022/03/11 06:41:03;;;;;;;20.15;10.38;;;;;;;-1.24;70.34;102436.78;4932208;29;20094;-79
2022/03/11 06:43:29;;;;;;;18.15;9.55;;;;;;;-1.25;70.31;102430.78;4948420;28;20590;-80
2022/03/11 06:45:54;;;;;;;21.48;10.45;;;;;;;-1.16;69.94;102436.66;4933941;29;20063;-80
2022/03/11 06:48:21;;;;;;;20.33;9.65;;;;;;;-1.02;69.28;102443.22;4916879;29;20031;-79
2022/03/11 06:50:48;;;;;;;18.58;9.63;;;;;;;-0.95;68.86;102453.41;4931740;28;20040;-79
2022/03/11 06:53:14;;;;;;;17.60;9.70;;;;;;;-0.92;68.66;102437.88;4912096;29;20040;-79
2022/03/11 06:55:40;;;;;;;20.83;10.27;;;;;;;-0.97;68.48;102437.97;4913966;29;20036;-80
2022/03/11 06:58:06;;;;;;;19.98;10.45;;;;;;;-0.85;68.03;102444.59;4914076;29;20036;-78
2022/03/11 07:00:31;;;;;;;20.00;9.25;;;;;;;-0.81;67.80;102444.53;4931597;28;20036;-79
2022/03/11 07:02:58;;;;;;;20.83;10.13;;;;;;;-0.76;67.81;102438.41;4913685;29;20034;-79
2022/03/11 07:05:24;;;;;;;18.08;9.88;;;;;;;-0.70;67.12;102436.53;4931454;29;20035;-81
2022/03/11 07:07:50;;;;;;;20.98;9.80;;;;;;;-0.73;66.83;102439.22;4932251;29;20027;-79
2022/03/11 07:10:16;;;;;;;18.52;10.02;;;;;;;-0.71;66.80;102434.03;4916210;29;20568;-80
2022/03/11 07:12:42;;;;;;;21.27;10.40;;;;;;;-0.71;66.65;102434.03;4913639;29;20035;-79
2022/03/11 07:15:09;;;;;;;17.90;10.80;;;;;;;-0.63;66.53;102447.59;4931014;29;20074;-79
2022/03/11 07:17:35;;;;;;;19.00;10.88;;;;;;;-0.52;67.00;102432.75;4933616;29;20692;-78
2022/03/11 07:20:01;;;;;;;18.63;9.35;;;;;;;-0.42;65.64;102436.78;4927876;28;20031;-79
2022/03/11 07:22:26;;;;;;;18.17;9.43;;;;;;;-0.35;65.42;102439.25;4935931;29;20040;-78
2022/03/11 07:24:52;;;;;;;16.67;9.13;;;;;;;-0.45;64.43;102433.47;4946018;29;20081;-79
2022/03/11 07:27:17;;;;;;;19.70;9.63;;;;;;;-0.47;65.57;102432.63;4913862;29;20036;-78
2022/03/11 07:29:43;;;;;;;24.05;9.55;;;;;;;-0.37;64.70;102428.13;4914823;29;20141;-78
2022/03/11 07:32:09;;;;;;;16.27;9.15;;;;;;;-0.32;64.68;102431.44;4947327;29;20524;-78
2022/03/11 07:34:35;;;;;;;18.48;9.32;;;;;;;-0.30;64.20;102427.97;4941963;28;20043;-78
2022/03/11 07:37:00;;;;;;;18.92;9.15;;;;;;;-0.21;63.48;102432.03;4930981;29;20042;-77
2022/03/11 07:39:26;;;;;;;19.30;9.55;;;;;;;-0.14;63.40;102428.44;4930664;29;20536;-78
2022/03/11 07:41:52;;;;;;;15.90;9.07;;;;;;;-0.13;62.88;102427.56;4936544;29;20036;-78
2022/03/11 07:44:18;;;;;;;16.92;8.93;;;;;;;0.03;62.31;102432.34;4931803;29;20032;-79
2022/03/11 07:46:44;;;;;;;19.05;9.68;;;;;;;0.03;61.98;102416.88;4932003;29;20032;-78
2022/03/11 07:49:10;;;;;;;19.38;9.38;;;;;;;0.09;61.14;102409.81;4930229;28;20446;-78
2022/03/11 07:51:37;;;;;;;19.80;9.65;;;;;;;0.19;59.91;102419.03;4946653;29;20482;-77
2022/03/11 07:54:03;;;;;;;17.08;9.05;;;;;;;0.21;60.70;102415.56;4928223;29;20047;-77
2022/03/11 07:56:28;;;;;;;14.27;8.50;;;;;;;0.30;60.78;102428.22;4950758;28;20057;-79
2022/03/11 07:58:55;;;;;;;18.52;9.02;;;;;;;0.43;60.11;102406.38;4931807;29;20114;-79
2022/03/11 08:01:22;;;;;;;20.67;9.65;;;;;;;0.66;59.40;102426.44;4931176;29;20054;-78
2022/03/11 08:03:48;;;;;;;17.98;9.27;;;;;;;0.67;58.15;102415.22;4945964;28;20036;-77
2022/03/11 08:06:14;;;;;;;15.98;8.25;;;;;;;0.59;58.24;102409.41;4936400;28;20453;-78
2022/03/11 08:08:41;;;;;;;17.15;8.85;;;;;;;0.67;58.20;102420.38;4937264;29;20501;-78
2022/03/11 08:11:07;;;;;;;16.88;8.80;;;;;;;0.70;58.22;102422.03;4932356;29;20044;-78
2022/03/11 08:13:35;;;;;;;15.43;8.20;;;;;;;0.79;57.42;102406.28;4932914;28;20746;-78
2022/03/11 08:16:01;;;;;;;16.40;9.18;;;;;;;0.80;57.12;102414.88;4950237;28;20040;-76
2022/03/11 08:18:27;;;;;;;19.55;9.02;;;;;;;0.75;56.32;102404.66;4947493;28;20043;-79
2022/03/11 08:20:52;;;;;;;20.08;9.02;;;;;;;0.91;56.18;102405.94;4933901;29;20035;-77
2022/03/11 08:23:18;;;;;;;22.10;9.75;;;;;;;1.02;56.24;102407.34;4939999;29;20150;-77
2022/03/11 08:25:46;;;;;;;15.95;8.88;;;;;;;0.93;54.79;102396.41;4946668;29;20055;-76
2022/03/11 08:28:13;;;;;;;17.92;8.70;;;;;;;1.00;54.16;102397.09;4934377;29;20398;-76
2022/03/11 08:30:43;;;;;;;21.70;9.23;;;;;;;0.99;54.02;102391.97;4929469;28;20042;-77
2022/03/11 08:33:10;;;;;;;17.98;8.02;;;;;;;1.09;53.48;102396.84;4940201;29;20031;-79
2022/03/11 08:35:36;;;;;;;18.05;8.70;;;;;;;1.23;53.84;102401.59;4950578;29;20090;-75
2022/03/11 08:38:06;;;;;;;19.08;9.18;;;;;;;1.33;53.18;102394.41;4931955;29;20487;-77
2022/03/11 08:40:35;;;;;;;18.85;9.00;;;;;;;1.42;53.31;102383.78;4935870;29;20074;-77
2022/03/11 08:43:01;;;;;;;16.00;8.35;;;;;;;1.52;52.72;102394.69;4935478;29;20031;-77
2022/03/11 08:45:27;;;;;;;20.23;8.55;;;;;;;1.62;52.22;102393.50;4931641;29;20043;-77
2022/03/11 08:47:53;;;;;;;16.63;8.65;;;;;;;1.63;51.66;102394.34;4915235;29;20035;-78
2022/03/11 08:50:20;;;;;;;18.02;8.85;;;;;;;1.67;51.43;102389.03;4950910;29;20039;-76
2022/03/11 08:52:46;;;;;;;17.33;8.63;;;;;;;1.63;50.43;102390.00;4934522;29;20044;-77
2022/03/11 08:55:14;;;;;;;18.45;8.55;;;;;;;1.65;50.46;102377.03;4914943;29;20130;-78
2022/03/11 08:57:46;;;;;;;14.20;8.63;;;;;;;1.98;51.77;102387.19;4949640;29;20111;-76
2022/03/11 09:00:14;;;;;;;18.48;9.10;;;;;;;2.06;51.13;102380.03;4913524;29;20135;-77
2022/03/11 09:02:39;;;;;;;18.70;8.60;;;;;;;2.18;50.81;102383.94;4932193;29;20035;-78
2022/03/11 09:05:07;;;;;;;17.88;8.63;;;;;;;2.33;50.37;102371.28;4913840;28;20032;-76
2022/03/11 09:07:35;;;;;;;21.45;8.38;;;;;;;2.11;48.60;102365.16;4931363;29;20042;-76
2022/03/11 09:10:02;;;;;;;16.67;8.38;;;;;;;2.21;48.62;102374.31;4929170;29;20070;-76
2022/03/11 09:12:28;;;;;;;13.90;7.65;;;;;;;2.24;48.83;102363.88;4932585;29;20042;-77
2022/03/11 09:14:54;;;;;;;14.57;7.32;;;;;;;2.33;48.71;102367.88;4947069;28;20039;-77
2022/03/11 09:17:19;;;;;;;17.90;8.68;;;;;;;2.36;48.56;102354.81;4948058;28;20082;-78
2022/03/11 09:19:45;;;;;;;17.67;8.30;;;;;;;2.53;49.12;102346.47;4947982;29;20043;-77
2022/03/11 09:22:14;;;;;;;13.18;7.50;;;;;;;2.50;47.39;102352.56;4946884;28;20098;-79
2022/03/11 09:24:41;;;;;;;22.42;8.13;;;;;;;2.58;47.91;102352.31;4933522;29;20633;-78
2022/03/11 09:27:08;;;;;;;19.77;7.50;;;;;;;2.68;47.27;102345.91;4933725;29;20043;-79
2022/03/11 09:29:33;;;;;;;16.48;7.70;;;;;;;2.89;46.72;102338.22;4947087;28;20134;-78
2022/03/11 09:31:59;;;;;;;13.82;7.28;;;;;;;2.92;47.00;102354.53;4948202;28;20497;-78
2022/03/11 09:34:25;;;;;;;14.20;7.18;;;;;;;3.06;46.38;102343.63;4932463;29;20484;-79
2022/03/11 09:36:54;;;;;;;16.95;7.82;;;;;;;3.15;47.49;102346.78;4932473;29;20040;-78
2022/03/11 09:39:21;;;;;;;13.27;6.65;;;;;;;3.12;45.91;102332.16;4932469;29;20055;-78
2022/03/11 09:41:48;;;;;;;17.83;7.72;;;;;;;3.22;45.40;102335.25;4932610;29;20047;-78
2022/03/11 09:44:18;;;;;;;16.33;7.05;;;;;;;3.24;44.83;102323.06;4948499;28;20371;-78
2022/03/11 09:46:45;;;;;;;16.92;7.28;;;;;;;3.36;45.18;102326.94;4938271;29;20122;-78
2022/03/11 09:49:15;;;;;;;13.50;6.45;;;;;;;3.49;44.74;102315.16;4915973;29;20043;-78
2022/03/11 09:51:41;;;;;;;17.40;6.88;;;;;;;3.52;43.78;102322.81;4942746;29;20445;-77
2022/03/11 09:54:08;;;;;;;14.25;7.07;;;;;;;3.52;43.79;102309.81;4929403;29;20048;-77
2022/03/11 09:56:35;;;;;;;17.77;6.60;;;;;;;3.63;43.09;102317.19;4940434;28;20043;-78
2022/03/11 09:59:00;;;;;;;17.77;7.30;;;;;;;3.92;44.04;102325.50;4936187;29;20039;-78
2022/03/11 10:01:26;;;;;;;16.83;6.95;;;;;;;4.03;41.22;102318.09;4931740;29;20086;-78
2022/03/11 10:03:53;;;;;;;16.48;7.53;;;;;;;4.21;42.30;102311.28;4934237;29;20649;-78
2022/03/11 10:06:38;;;;;;;17.17;7.47;;;;;;;4.53;42.29;102325.47;4928321;29;20529;-77
2022/03/11 10:09:04;;;;;;;21.20;7.10;;;;;;;4.56;41.94;102320.13;4948481;29;20039;-78
2022/03/11 10:11:30;;;;;;;15.43;6.63;;;;;;;4.46;40.84;102321.44;4946983;29;20039;-78
2022/03/11 10:14:09;;;;;;;15.07;6.97;;;;;;;4.47;41.91;102316.19;4915412;29;20034;-78
2022/03/11 10:16:36;;;;;;;15.60;6.80;;;;;;;4.66;41.54;102307.56;4933810;29;20323;-78
2022/03/11 10:19:01;;;;;;;14.68;7.20;;;;;;;4.67;41.74;102328.28;4931931;29;20065;-77
2022/03/11 10:21:41;;;;;;;13.98;6.70;;;;;;;4.75;41.28;102319.31;4930950;29;20039;-79
2022/03/11 10:24:10;;;;;;;14.00;6.75;;;;;;;4.93;41.33;102321.03;4934579;29;20032;-79
2022/03/11 10:26:58;;;;;;;15.57;6.57;;;;;;;5.04;40.21;102320.53;4942306;29;20439;-80
2022/03/11 10:29:27;;;;;;;12.40;6.53;;;;;;;4.98;39.93;102313.03;4945537;28;20065;-79
2022/03/11 10:31:55;;;;;;;15.15;7.15;;;;;;;5.13;40.16;102312.31;4918460;29;20099;-80
2022/03/11 10:34:26;;;;;;;12.30;6.20;;;;;;;5.35;38.05;102301.72;4918108;29;20035;-78
2022/03/11 10:37:12;;;;;;;12.88;6.50;;;;;;;5.25;38.28;102313.47;4949638;29;20069;-78
2022/03/11 10:39:40;;;;;;;12.32;6.07;;;;;;;4.98;38.20;102297.44;4933941;28;20032;-80
2022/03/11 10:42:12;;;;;;;13.50;6.82;;;;;;;5.28;39.00;102300.34;4926122;28;20039;-79
2022/03/11 10:44:53;;;;;;;14.13;5.55;;;;;;;5.42;38.09;102295.28;4925792;29;20032;-78
2022/03/11 10:47:24;;;;;;;12.02;6.38;;;;;;;5.24;36.96;102291.84;4938667;29;20063;-78
2022/03/11 10:49:52;;;;;;;11.65;6.13;;;;;;;5.38;37.40;102293.75;4916993;29;20046;-79
2022/03/11 10:52:32;;;;;;;13.32;6.07;;;;;;;5.49;37.55;102280.22;4931488;29;20507;-79
2022/03/11 10:54:59;;;;;;;12.43;6.20;;;;;;;5.69;37.00;102274.03;4917112;29;20089;-79
2022/03/11 10:57:36;;;;;;;16.23;7.22;;;;;;;5.78;37.05;102264.91;4913081;29;20443;-77
2022/03/11 11:00:22;;;;;;;12.55;6.40;;;;;;;5.74;37.08;102265.97;4934238;29;20094;-76
2022/03/11 11:02:49;;;;;;;12.70;6.53;;;;;;;5.73;37.25;102265.16;4927505;29;20093;-76
2022/03/11 11:05:15;;;;;;;15.75;6.85;;;;;;;6.00;37.24;102268.13;4928872;29;20047;-77
2022/03/11 11:07:41;;;;;;;12.02;6.50;;;;;;;5.97;36.02;102275.25;4926468;29;20074;-76
2022/03/11 11:10:11;;;;;;;12.60;6.03;;;;;;;6.11;36.22;102254.53;4930332;29;20083;-78
2022/03/11 11:12:38;;;;;;;14.35;6.55;;;;;;;6.09;34.92;102248.56;4942435;28;20031;-78
2022/03/11 11:15:04;;;;;;;11.55;5.88;;;;;;;6.17;35.73;102241.19;4944463;28;20574;-77
2022/03/11 11:17:31;;;;;;;14.93;5.82;;;;;;;6.34;35.89;102257.69;4946571;29;20036;-77